Shaw A F B, South Carolina
Current Conditions -  °F | °C
As of 5:28 PM on Monday 24 Nov 2014 (Local Time) from KSSC Reporting Station
Broken Clouds Broken Clouds  
Wind Chill: 68°   Ceiling: 800
Heat Index: 68°   Visibility: 10mi
Dew Point: 66°   Wind: 10mph
Humidity: 94%   Direction: 190°S
Pressure: 29.83"   Gusts: NA
Location:  33.9803°N, 80.4811°W
Report Text: KSSC 242228Z AUTO 19009KT 10SM BKN008 BKN090 20/19 A2983 RMK AO2 CIG 008V090 BKN008 V FEW $
Loading
Personal Weather Stations






























Interactive Weather Map New forecast layout! Learn more

10-Day Weather Forecast

Advertisements
Track Severe Weather on mobile